Airfield :
LOGIN :

Register | Disclaimer

   EN    FR    IT 

 










Legend :    VFR   Marginal VFR   IFR   Intensive IFR   Very Intensive IFR
Visi :
Ceiling :
>= 8 km
>= 3000ft
5 to 8 km
1000 to 3000 ft
1500m to 5 km
500 to 1000 ft
800 to 1500m
200 to 500 ft
< 800m
< 200 ft
Symbols :   Thunderstorms  Fog  Heavy snow  Heavy precipitations  Wind > 20 kt
SIGMETs :     Misc.  Thunderstorms  Icing  Turbulence  Mountain Waves  Volcanic Ashes







- Airport Elevation : 202 ft
- IATA code : LGW
- Download approach charts


EGKK - London Gatwick

CURRENT METAR :
  • 150950Z 33010KT 9999 BKN008 03/02 Q0995

EXPIRED METARs :
  • 150920Z 33009KT 9000 -RA SCT006 BKN010 03/02 Q0995
  • 150850Z 33009KT 300V360 9000 -RA BKN008 03/02 Q0994
  • 150820Z 34009KT 9000 FEW008 BKN012 03/02 Q0993
  • 150750Z 33010KT 9000 -SHRA BKN009 04/03 Q0992
  • 150720Z VRB03KT 9999 -SHRA BKN014 03/03 Q0991

TAF AMD TAF EGKK
Valid from the 15 at 10:00 until the 16 at 12:00 UTC


151007Z 1510/1612 34012KT 9999 BKN008
BECMG 1510/1512 SCT018
PROB30
TEMPO 1512/1518 35015G25KT 8000 -SHRA BKN014
PROB30 1518/1603 BKN014
No reported NOTAMs for that airfield.



MET'MAP, your aeronautical weather chart ! - Copyright ORBIFLY December 2007 - Disclaimer

ORBIFLY MET'MAP TEAM :

Programming & Development : Alexandra Zaïnal
Concept & Development : Baudouin d'Aumeries
Co-Development & Prog : Marc-Olivier Méhu
Technical & hardware support : Manuel Goepfert

Contact : metmap@orbifly.com




SOURCES & CREDITS :

   NOAA